メインページ
METAR-TAF:

METAR-TAF

空港 :

ウィーン国際空港

ウィーン, オーストリア

緯度: 48-07N, 経度: 016-34E, 海抜: 183m

現時点の気象観測

当レポートは44分前の15:20(UTC)に作成
変向風 2kt
気温 -1°C
湿度 93%
気圧 1025 hPa
視程: 2400m
高度200ftの雲はほとんどない
高度1000ftの雲は散在している
高度1200ftの千切れ雲あり
小雪, 靄

METAR: LOWW 181520Z VRB02KT 2400 -SN BR FEW002 SCT010 BKN012 M01/M02 Q1025 R88/29//95 TEMPO 1200 SN VV004

時間: 17:04 (16:04 UTC)

予報

当レポートは1時間49分前の14:15(UTC)に作成
予報は18日の 15時(UTC)から 19日の 21時(UTC)まで有効
の風 4kt
視程: 2500m
高度1000ftの曇り
小雪, 靄
18日の 15時(UTC)から 18日の 19時(UTC)まで一時的に
視程: 0900m
高度300ftの
18日の 20時(UTC)から 18日の 22時(UTC)まで徐々に
北/北西の風 7kt
視程: 6000m
高度1500ftの千切れ雲あり
19日の 05時(UTC)から 19日の 16時(UTC)まで一時的に
の風 15kt
視程: 2000m
高度1000ftの雲はほとんどない
高度1500ftの千切れ雲あり
弱いにわか雪, 雨
確率 30% :
19日の 10時(UTC)から 19日の 15時(UTC)まで一時的に
視程: 1000m
高度400ftの
にわか雪
19日の 1600時(UTC)から
北/北西の風 13kt
視程10km以上
高度3000ftの千切れ雲あり

TAF: LOWW 181415Z 1815/1921 08004KT 2500 -SN BR OVC010 TX03/1913Z TNM01/1815Z TEMPO 1815/1819 0900 SN VV003 BECMG 1820/1822 33007KT 6000 NSW BKN015 TEMPO 1905/1916 35015KT 2000 -SHSNRA FEW010 BKN015 PROB30 TEMPO 1910/1915 1000 SHSN VV004 FM191600 34013KT 9999 BKN030

4,000以上の空港の気象観測と天気予報(METAR報とTAF報)

利用可能な観測所は地図上に黄色い丸と赤い丸で示す。

丸の上にカーソルを重ねると観測所名を参照できる。

次にクリックすると気象観測と天気予報を参照できる。

マップの切り替え:黒色「×」印の緑ボタンをクリックして拡大、「-」印の緑ボタンをクリックして縮小、緑色の三角印をクリックして隣りの地図に切り替え


METAR-TAF: